Airfield :
LOGIN :

Register | Disclaimer

   EN    FR    IT 

 










Legend :    VFR   Marginal VFR   IFR   Intensive IFR   Very Intensive IFR
Visi :
Ceiling :
>= 8 km
>= 3000ft
5 to 8 km
1000 to 3000 ft
1500m to 5 km
500 to 1000 ft
800 to 1500m
200 to 500 ft
< 800m
< 200 ft
Symbols :   Thunderstorms  Fog  Heavy snow  Heavy precipitations  Wind > 20 kt
SIGMETs :     Misc.  Thunderstorms  Icing  Turbulence  Mountain Waves  Volcanic Ashes






- Airport Elevation : 184 ft
- IATA code : BRU


EBBR - Bruxelles

CURRENT METAR :
  • 191420Z 06004KT 010V100 9999 FEW042 21/12 Q1014 NOSIG

EXPIRED METARs :
  • 191350Z 06004KT 030V120 9999 FEW043 21/12 Q1014 NOSIG
  • 191320Z 07005KT 020V110 9999 FEW043 21/12 Q1014 NOSIG
  • 191250Z 08004KT 040V120 9999 FEW045 21/11 Q1014 NOSIG
  • 191220Z 07004KT 030V110 9999 FEW045 21/12 Q1014 NOSIG
  • 191150Z 06003KT 010V150 9999 FEW045 21/12 Q1015 NOSIG

TAF TAF EBBR
Valid from the 19 at 12:00 until the 20 at 18:00 UTC


191116Z 1912/2018 07005KT 9999 FEW045
PROB30
TEMPO 2004/2007 4000 BR



MET'MAP, your aeronautical weather chart ! - Copyright ORBIFLY December 2007 - Disclaimer

ORBIFLY MET'MAP TEAM :

Programming & Development : Alexandra Zaïnal
Concept & original design : Baudouin d'Aumeries
Assistance for programming : Marc-Olivier Méhu
Technical & hardware support : Manuel Goepfert

Contact : metmap@orbifly.com




SOURCES & CREDITS :

   NOAA